• Join FlightAware (Why Join?)
  • Login
  • US Flag 
01:35AM EST


 

Airport Tracker/Info


-or-


 

Live Flight TrackerFlight Track Log ✈ DAL369 ✈ 14-May-2014 ✈ KATL - MNMG / MGA

Flight Track Log - Related Links

Times and Time Zones

All times are in EDT time to prevent confusion due to time zone crossing. See the DAL369 flight status page for this flight to view local times or setup timezone preferences in your user account.

Time Position Orientation Groundspeed Altitude Reporting Facility
EDT Latitude Longitude Course Direction KTS MPH feet Rate Location/Type
06:28PM 33.6333 -84.3833 164° South 174 200 2,800  Level Atlanta TRACON
06:29PM 33.6000 -84.3000 116° Southeast 262 302 5,300 2,700 Climbing Atlanta TRACON
06:31PM 33.2447 -84.2319 168° South  Level FlightAware Approximate
06:31PM 33.4747 -84.3103 184° South 256 295 10,600  Level Atlanta Center
06:32PM 33.1241 -84.2018 168° South  Level FlightAware Approximate
06:32PM 33.4017 -84.3175 185° South 261 300 13,800  Level Atlanta Center
06:33PM 33.0038 -84.1735 164° South  Level FlightAware Approximate
06:33PM 33.3325 -84.3272 187° South 261 300 16,400  Level Atlanta Center
06:34PM 33.2617 -84.3169 173° South 266 306 18,700 2,220 Climbing Atlanta Center
06:35PM 33.1822 -84.3267 186° South 276 318 20,900 1,920 Climbing Atlanta Center
06:36PM 33.0967 -84.3414 188° South 295 339 22,600 1,260 Climbing Atlanta Center
06:37PM 33.0111 -84.3583 189° South 305 351 23,500 1,140 Climbing Atlanta Center
06:38PM 32.9192 -84.3681 185° South 322 371 24,900 1,440 Climbing Atlanta Center
06:39PM 32.8275 -84.3650 178° South 334 384 26,400 1,500 Climbing Atlanta Center
06:40PM 32.7442 -84.2908 143° Southeast 344 396 27,900 1,380 Climbing Atlanta Center
06:41PM 32.6669 -84.2092 138° Southeast 349 402 29,200 1,260 Climbing Atlanta Center
06:42PM 32.5919 -84.1153 133° Southeast 374 430 30,500 1,200 Climbing Atlanta Center
06:43PM 32.5042 -84.0461 146° Southeast 380 437 31,700 900 Climbing Atlanta Center
06:44PM 32.4103 -83.9750 147° Southeast 388 447 32,300 660 Climbing Atlanta Center
06:45PM 32.3017 -83.9233 158° South 399 459 33,100 960 Climbing Atlanta Center
06:46PM 32.1931 -83.8769 160° South 409 471 34,300 840 Climbing Atlanta Center
06:47PM 32.0803 -83.8403 165° South 422 486 34,800 720 Climbing Atlanta Center
06:48PM 31.9647 -83.8353 178° South 418 481 35,700 840 Climbing Jacksonville Center
06:49PM 31.8669 -83.7928 160° South 418 481 36,400 600 Climbing Jacksonville Center
06:50PM 31.7525 -83.7381 158° South 423 487 37,000 300 Climbing Jacksonville Center
06:51PM 31.6422 -83.6808 156° South 428 493 37,000  Level Jacksonville Center
06:52PM 31.5319 -83.5994 148° Southeast 443 510 37,000  Level Jacksonville Center
06:53PM 31.4300 -83.5133 144° Southeast 448 516 37,000  Level Jacksonville Center
06:54PM 31.3261 -83.4300 146° Southeast 459 528 37,000  Level Jacksonville Center
06:55PM 31.2219 -83.3492 146° Southeast 459 528 37,000  Level Jacksonville Center
06:56PM 31.1178 -83.2686 146° Southeast 459 528 37,000  Level Jacksonville Center
06:57PM 31.0158 -83.1858 145° Southeast 459 528 37,000  Level Jacksonville Center
06:58PM 30.9178 -83.0936 141° Southeast 459 528 37,000 -60 Level Jacksonville Center
06:59PM 30.8156 -82.9942 140° Southeast 449 517 36,900  Descending Jacksonville Center
07:00PM 30.7197 -82.9167 145° Southeast 449 517 37,000  Climbing Jacksonville Center
07:01PM 30.6172 -82.8225 142° Southeast 460 529 37,000  Level Jacksonville Center
07:02PM 30.5128 -82.7214 140° Southeast 460 529 37,000  Level Jacksonville Center
07:03PM 30.4292 -82.6469 142° Southeast 460 529 37,000  Level Jacksonville Center
07:04PM 30.3058 -82.5847 156° South 460 529 37,000  Level Jacksonville Center
07:05PM 30.1889 -82.5706 174° South 429 494 37,000 -60 Level Jacksonville Center
07:06PM 30.0678 -82.5567 174° South 429 494 36,900 -60 Descending Jacksonville Center
07:07PM 29.9383 -82.5356 172° South 429 494 36,900  Level Jacksonville Center
07:08PM 29.8192 -82.5239 175° South 429 494 36,900  Level Jacksonville Center
07:09PM 29.7003 -82.5100 174° South 429 494 36,900  Level Jacksonville Center
07:10PM 29.5769 -82.4986 175° South 429 494 37,000  Climbing Jacksonville Center
07:11PM 29.4558 -82.4847 174° South 440 506 37,000  Level Jacksonville Center
07:12PM 29.3367 -82.4708 174° South 440 506 37,000 -60 Level Jacksonville Center
07:13PM 29.2239 -82.4144 156° South 438 504 36,900 -60 Descending Jacksonville Center
07:14PM 29.1172 -82.3411 149° Southeast 438 504 36,900  Level Jacksonville Center
07:15PM 29.0103 -82.2611 147° Southeast 443 510 37,000  Climbing Jacksonville Center
07:17PM 28.8114 -82.1056 146° Southeast 451 519 37,000  Level Miami Center
07:18PM 28.6936 -82.0672 164° South 442 509 37,000 -60 Level Miami Center
07:19PM 28.5511 -82.0461 173° South 434 499 36,900 -60 Descending Miami Center
07:20PM 28.4317 -82.0308 174° South 431 496 36,900  Level Miami Center
07:21PM 28.3275 -82.0169 173° South 430 495 36,900  Level Miami Center
07:22PM 28.1825 -81.9964 173° South 434 499 36,900  Level Miami Center
07:23PM 28.0625 -81.9794 173° South 434 499 37,000  Climbing Miami Center
07:24PM 27.9408 -81.9478 167° South 444 511 37,000  Level Miami Center
07:25PM 27.8075 -81.9114 166° South 448 516 37,100  Climbing Miami Center
07:26PM 27.6803 -81.8769 167° South 448 516 37,100 -60 Level Miami Center
07:27PM 27.5553 -81.8433 167° South 447 514 37,000 -60 Descending Miami Center
07:28PM 27.4394 -81.8122 167° South 441 507 37,000  Level Miami Center
07:29PM 27.3158 -81.7783 166° South 438 504 37,000  Level Miami Center
07:30PM 27.1917 -81.7456 167° South 439 505 37,000  Level Miami Center
07:31PM 27.0642 -81.7211 170° South 442 509 37,000  Level Miami Center
07:32PM 26.9486 -81.7008 171° South 443 510 37,000  Level Miami Center
07:33PM 26.8258 -81.6800 171° South 444 511 37,000  Level Miami Center
07:34PM 26.7019 -81.6586 171° South 448 516 37,000  Level Miami Center
07:35PM 26.5569 -81.6336 171° South 455 524 37,000  Level Miami Center
07:36PM 26.4403 -81.6150 172° South 461 531 37,000  Level Miami Center
07:38PM 26.3142 -81.5953 172° South 459 528 37,000  Level Miami Center
07:39PM 26.1864 -81.5733 171° South 461 531 37,000 -60 Level Miami Center
07:40PM 26.0358 -81.5492 172° South 459 528 36,900 -60 Descending Miami Center
07:41PM 25.9117 -81.5283 171° South 455 524 36,900  Level Miami Center
07:42PM 25.7886 -81.5081 172° South 451 519 37,000  Climbing Miami Center
07:43PM 25.6667 -81.4892 172° South 449 517 36,900 -60 Descending Miami Center
07:44PM 25.5467 -81.4683 171° South 442 509 36,900  Level Miami Center
07:45PM 25.4247 -81.4478 171° South 443 510 36,900  Level Miami Center
07:46PM 25.2767 -81.4244 172° South 446 513 37,000  Climbing Miami Center
07:47PM 25.1525 -81.4042 172° South 450 518 37,000  Level Miami Center
07:48PM 25.0267 -81.3833 171° South 457 526 37,000  Level Miami Center
07:49PM 24.9017 -81.3619 171° South 456 525 37,000  Level Miami Center
07:50PM 24.7767 -81.3419 172° South 456 525 37,000 -60 Level Miami Center
07:51PM 24.6522 -81.3208 171° South 455 524 36,900 -60 Descending Miami Center
07:52PM 24.5272 -81.3006 172° South 454 522 36,900  Level Miami Center
07:53PM 24.4019 -81.2814 172° South 455 524 37,000  Climbing Miami Center
07:54PM 24.2500 -81.2572 172° South 456 525 37,000  Level Miami Center
07:55PM 24.1239 -81.2361 171° South 458 527 37,000  Level Miami Center
07:56PM 23.9978 -81.2267 176° South 456 525 37,000  Level Miami Center
07:57PM 23.8775 -81.2544 192° South 445 512 37,000  Level Miami Center
07:59PM 23.6993 -81.2794 193° South  Level FlightAware Approximate
08:06PM 22.8882 -81.4561 183° South  Level FlightAware Approximate
08:07PM 22.7699 -81.4617 183° South  Level FlightAware Approximate
08:08PM 22.6516 -81.4673 183° South  Level FlightAware Approximate
08:09PM 22.5333 -81.4729 182° South  Level FlightAware Approximate
08:10PM 22.4150 -81.4785 182° South  Level FlightAware Approximate
08:11PM 22.2967 -81.4840 182° South  Level FlightAware Approximate
08:12PM 22.1784 -81.4896 182° South  Level FlightAware Approximate
08:13PM 22.0601 -81.4952 182° South  Level FlightAware Approximate
08:14PM 21.9418 -81.5007 182° South  Level FlightAware Approximate
08:15PM 21.8235 -81.5062 182° South  Level FlightAware Approximate
08:16PM 21.7052 -81.5118 182° South  Level FlightAware Approximate
08:17PM 21.5886 -81.5236 210° Southwest  Level FlightAware Approximate
08:18PM 21.4856 -81.5865 210° Southwest  Level FlightAware Approximate
08:19PM 21.3807 -81.6504 210° Southwest  Level FlightAware Approximate
08:20PM 21.2757 -81.7141 210° Southwest  Level FlightAware Approximate
08:21PM 21.1704 -81.7772 209° Southwest  Level FlightAware Approximate
08:22PM 21.0646 -81.8392 209° Southwest  Level FlightAware Approximate
08:23PM 20.9587 -81.9011 209° Southwest  Level FlightAware Approximate
08:24PM 20.8528 -81.9630 209° Southwest  Level FlightAware Approximate
08:25PM 20.7470 -82.0247 209° Southwest  Level FlightAware Approximate
08:26PM 20.6411 -82.0864 209° Southwest  Level FlightAware Approximate
08:27PM 20.5351 -82.1480 209° Southwest  Level FlightAware Approximate
08:28PM 20.4292 -82.2095 209° Southwest  Level FlightAware Approximate
08:29PM 20.3232 -82.2710 209° Southwest  Level FlightAware Approximate
08:30PM 20.2172 -82.3323 209° Southwest  Level FlightAware Approximate
08:31PM 20.1112 -82.3935 208° Southwest  Level FlightAware Approximate
08:32PM 19.9992 -82.4336 205° Southwest  Level FlightAware Approximate
08:33PM 19.8899 -82.4880 205° Southwest  Level FlightAware Approximate
08:34PM 19.7807 -82.5424 205° Southwest  Level FlightAware Approximate
08:35PM 19.6714 -82.5966 205° Southwest  Level FlightAware Approximate
08:36PM 19.5621 -82.6507 205° Southwest  Level FlightAware Approximate
08:37PM 19.4528 -82.7048 205° Southwest  Level FlightAware Approximate
08:38PM 19.3435 -82.7589 205° Southwest  Level FlightAware Approximate
08:39PM 19.2342 -82.8128 205° Southwest  Level FlightAware Approximate
08:40PM 19.1248 -82.8667 205° Southwest  Level FlightAware Approximate
08:41PM 19.0155 -82.9205 205° Southwest  Level FlightAware Approximate
08:42PM 18.9061 -82.9742 205° Southwest  Level FlightAware Approximate
08:43PM 18.7967 -83.0278 205° Southwest  Level FlightAware Approximate
08:44PM 18.6873 -83.0814 205° Southwest  Level FlightAware Approximate
08:45PM 18.5779 -83.1350 205° Southwest  Level FlightAware Approximate
08:46PM 18.4684 -83.1884 205° Southwest  Level FlightAware Approximate
08:47PM 18.3590 -83.2418 205° Southwest  Level FlightAware Approximate
08:48PM 18.2495 -83.2951 205° Southwest  Level FlightAware Approximate
08:49PM 18.1400 -83.3484 205° Southwest  Level FlightAware Approximate
08:50PM 18.0305 -83.4015 205° Southwest  Level FlightAware Approximate
08:51PM 17.9210 -83.4547 205° Southwest  Level FlightAware Approximate
08:52PM 17.8115 -83.5077 205° Southwest  Level FlightAware Approximate
08:53PM 17.7019 -83.5607 205° Southwest  Level FlightAware Approximate
08:54PM 17.5924 -83.6136 205° Southwest  Level FlightAware Approximate
08:55PM 17.4828 -83.6665 205° Southwest  Level FlightAware Approximate
08:56PM 17.3732 -83.7193 205° Southwest  Level FlightAware Approximate
08:57PM 17.2636 -83.7720 205° Southwest  Level FlightAware Approximate
08:58PM 17.1540 -83.8247 205° Southwest  Level FlightAware Approximate
08:59PM 17.0444 -83.8773 205° Southwest  Level FlightAware Approximate
09:00PM 16.9348 -83.9298 205° Southwest  Level FlightAware Approximate
09:01PM 16.8251 -83.9823 205° Southwest  Level FlightAware Approximate
09:02PM 16.7154 -84.0347 205° Southwest  Level FlightAware Approximate
09:03PM 16.6058 -84.0871 205° Southwest  Level FlightAware Approximate
09:04PM 16.4961 -84.1394 205° Southwest  Level FlightAware Approximate
09:05PM 16.3864 -84.1916 205° Southwest  Level FlightAware Approximate
09:06PM 16.2766 -84.2438 205° Southwest  Level FlightAware Approximate
09:07PM 16.1663 -84.2962 205° Southwest  Level FlightAware Approximate
09:08PM 16.0560 -84.3485 205° Southwest  Level FlightAware Approximate
09:09PM 15.9457 -84.4008 204° Southwest  Level FlightAware Approximate
09:10PM 15.8354 -84.4530 204° Southwest  Level FlightAware Approximate
09:11PM 15.7250 -84.5052 204° Southwest  Level FlightAware Approximate
09:12PM 15.6146 -84.5573 204° Southwest  Level FlightAware Approximate
09:13PM 15.5043 -84.6094 204° Southwest  Level FlightAware Approximate
09:14PM 15.3939 -84.6614 204° Southwest  Level FlightAware Approximate
09:15PM 15.2835 -84.7133 204° Southwest  Level FlightAware Approximate
09:16PM 15.1731 -84.7652 204° Southwest  Level FlightAware Approximate
09:17PM 15.0626 -84.8170 204° Southwest  Level FlightAware Approximate
09:18PM 14.9522 -84.8688 204° Southwest  Level FlightAware Approximate
09:19PM 14.8417 -84.9204 204° Southwest  Level FlightAware Approximate
09:20PM 14.7308 -84.9709 204° Southwest  Level FlightAware Approximate
09:21PM 14.6198 -85.0214 204° Southwest  Level FlightAware Approximate
09:22PM 14.5088 -85.0718 204° Southwest  Level FlightAware Approximate
09:23PM 14.3978 -85.1222 204° Southwest  Level FlightAware Approximate
09:24PM 14.2870 -85.1729 205° Southwest  Level FlightAware Approximate
09:25PM 14.1770 -85.2256 205° Southwest  Level FlightAware Approximate
09:26PM 14.0670 -85.2782 205° Southwest  Level FlightAware Approximate
09:27PM 13.9571 -85.3307 205° Southwest  Level FlightAware Approximate
09:28PM 13.8476 -85.3844 203° Southwest  Level FlightAware Approximate
09:29PM 13.7360 -85.4332 203° Southwest  Level FlightAware Approximate
09:30PM 13.6244 -85.4820 203° Southwest  Level FlightAware Approximate
09:31PM 13.5129 -85.5309 203° Southwest  Level FlightAware Approximate
09:32PM 13.4013 -85.5797 203° Southwest  Level FlightAware Approximate
09:33PM 13.2900 -85.6291 204° Southwest  Level FlightAware Approximate
09:34PM 13.1796 -85.6804 204° Southwest  Level FlightAware Approximate
09:35PM 13.0691 -85.7317 204° Southwest  Level FlightAware Approximate
09:36PM 12.9587 -85.7830 204° Southwest  Level FlightAware Approximate
09:37PM 12.8483 -85.8343 208° Southwest  Level FlightAware Approximate
09:38PM 12.7417 -85.8935 208° Southwest  Level FlightAware Approximate
09:39PM 12.6316 -85.9452 202° Southwest  Level FlightAware Approximate
09:40PM 12.5193 -85.9920 202° Southwest  Level FlightAware Approximate
09:41PM 12.4079 -86.0409 203° Southwest  Level FlightAware Approximate
09:42PM 12.2967 -86.0900 198° South  Level FlightAware Approximate
09:43PM 12.1861 -86.1403 206° Southwest  Level FlightAware Approximate
09:44PM 12.1500 -86.1500 44° Northeast  Level FlightAware Approximate
09:45PM 12.1415 -86.1682 44° Northeast  Level Estimated
09:46PM 12.1415 -86.1682 44° Northeast  Level Estimated